HBA weather

Hobart International Airport
Hobart, Tasmania, Australia

Public forecast

Using degrees Celsius for public forecast. Weather courtesy of forecast.io.

METAR (pilot weather report)

Retrieved 2019/02/20 13:00 UTC (1 hour ago):

YMHB 201300Z 32012KT 9999 FEW040 BKN055 13/03 Q1011 RF00.0/000.0

TAF (pilot weather forecast)

Retrieved 2019/02/20 12:36 UTC (1 hour ago):

TAF YMHB 201121Z 2012/2112 31006KT 9999 BKN035 FM210000 29012KT 9999 SCT025 BKN030 FM210400 23012KT 9999 -SHRA BKN035 FM210900 28008KT 9999 SCT030